sensor_id;sensor_type;location;lat;lon;timestamp;pressure;altitude;pressure_sealevel;temperature
64947;BMP280;51469;52.150;4.682;2024-03-08T00:01:35;102073.28;;;10.86
64947;BMP280;51469;52.150;4.682;2024-03-08T00:04:00;102066.31;;;10.77
64947;BMP280;51469;52.150;4.682;2024-03-08T00:06:28;102067.88;;;10.90
64947;BMP280;51469;52.150;4.682;2024-03-08T00:08:54;102067.00;;;10.86
64947;BMP280;51469;52.150;4.682;2024-03-08T00:11:19;102059.13;;;10.72
64947;BMP280;51469;52.150;4.682;2024-03-08T00:13:44;102057.19;;;10.61
64947;BMP280;51469;52.150;4.682;2024-03-08T00:16:10;102064.97;;;10.71
64947;BMP280;51469;52.150;4.682;2024-03-08T00:18:35;102056.97;;;10.66
64947;BMP280;51469;52.150;4.682;2024-03-08T00:21:01;102061.75;;;10.57
64947;BMP280;51469;52.150;4.682;2024-03-08T00:23:26;102046.44;;;10.56
64947;BMP280;51469;52.150;4.682;2024-03-08T00:25:53;102052.41;;;10.58
64947;BMP280;51469;52.150;4.682;2024-03-08T00:28:20;102040.28;;;10.47
64947;BMP280;51469;52.150;4.682;2024-03-08T00:30:45;102045.28;;;10.57
64947;BMP280;51469;52.150;4.682;2024-03-08T00:33:11;102020.50;;;10.41
64947;BMP280;51469;52.150;4.682;2024-03-08T00:35:37;102049.19;;;10.56
64947;BMP280;51469;52.150;4.682;2024-03-08T00:38:02;102042.53;;;10.57
64947;BMP280;51469;52.150;4.682;2024-03-08T00:40:28;102046.47;;;10.44
64947;BMP280;51469;52.150;4.682;2024-03-08T00:42:54;102039.78;;;10.57
64947;BMP280;51469;52.150;4.682;2024-03-08T00:45:19;102038.34;;;10.59
64947;BMP280;51469;52.150;4.682;2024-03-08T00:47:44;102034.13;;;10.50
64947;BMP280;51469;52.150;4.682;2024-03-08T00:50:10;102038.69;;;10.46
64947;BMP280;51469;52.150;4.682;2024-03-08T00:52:37;102031.28;;;10.46
64947;BMP280;51469;52.150;4.682;2024-03-08T00:55:02;102023.69;;;10.43
64947;BMP280;51469;52.150;4.682;2024-03-08T00:57:28;102030.00;;;10.44
64947;BMP280;51469;52.150;4.682;2024-03-08T00:59:53;102001.22;;;10.38
64947;BMP280;51469;52.150;4.682;2024-03-08T01:02:19;102018.09;;;10.40
64947;BMP280;51469;52.150;4.682;2024-03-08T01:04:46;102019.28;;;10.27
64947;BMP280;51469;52.150;4.682;2024-03-08T01:07:12;102015.81;;;10.18
64947;BMP280;51469;52.150;4.682;2024-03-08T01:09:37;102014.34;;;10.20
64947;BMP280;51469;52.150;4.682;2024-03-08T01:12:03;102007.38;;;10.23
64947;BMP280;51469;52.150;4.682;2024-03-08T01:14:28;102005.09;;;10.13
64947;BMP280;51469;52.150;4.682;2024-03-08T01:16:55;102009.00;;;10.12
64947;BMP280;51469;52.150;4.682;2024-03-08T01:19:20;101999.81;;;10.08
64947;BMP280;51469;52.150;4.682;2024-03-08T01:21:46;102003.25;;;10.17
64947;BMP280;51469;52.150;4.682;2024-03-08T01:24:11;101994.47;;;10.11
64947;BMP280;51469;52.150;4.682;2024-03-08T01:26:37;101984.09;;;10.05
64947;BMP280;51469;52.150;4.682;2024-03-08T01:29:02;101986.34;;;10.03
64947;BMP280;51469;52.150;4.682;2024-03-08T01:31:31;101976.06;;;10.00
64947;BMP280;51469;52.150;4.682;2024-03-08T01:33:57;101983.13;;;10.01
64947;BMP280;51469;52.150;4.682;2024-03-08T01:36:23;101979.28;;;10.02
64947;BMP280;51469;52.150;4.682;2024-03-08T01:38:50;101972.41;;;9.84
64947;BMP280;51469;52.150;4.682;2024-03-08T01:41:15;101976.06;;;9.88
64947;BMP280;51469;52.150;4.682;2024-03-08T01:43:43;101970.91;;;9.86
64947;BMP280;51469;52.150;4.682;2024-03-08T01:46:09;101967.94;;;9.91
64947;BMP280;51469;52.150;4.682;2024-03-08T01:48:34;101962.56;;;9.83
64947;BMP280;51469;52.150;4.682;2024-03-08T01:51:00;101960.53;;;9.80
64947;BMP280;51469;52.150;4.682;2024-03-08T01:53:27;101955.84;;;9.80
64947;BMP280;51469;52.150;4.682;2024-03-08T01:55:57;101956.78;;;9.72
64947;BMP280;51469;52.150;4.682;2024-03-08T01:58:23;101952.28;;;9.68
64947;BMP280;51469;52.150;4.682;2024-03-08T02:00:49;101948.19;;;9.62
64947;BMP280;51469;52.150;4.682;2024-03-08T02:03:16;101942.69;;;9.62
64947;BMP280;51469;52.150;4.682;2024-03-08T02:05:41;101941.31;;;9.68
64947;BMP280;51469;52.150;4.682;2024-03-08T02:08:07;101937.69;;;9.64
64947;BMP280;51469;52.150;4.682;2024-03-08T02:10:33;101942.00;;;9.65
64947;BMP280;51469;52.150;4.682;2024-03-08T02:13:01;101937.41;;;9.57
64947;BMP280;51469;52.150;4.682;2024-03-08T02:15:53;101932.97;;;9.52
64947;BMP280;51469;52.150;4.682;2024-03-08T02:18:19;101933.44;;;9.54
64947;BMP280;51469;52.150;4.682;2024-03-08T02:20:49;101925.97;;;9.54
64947;BMP280;51469;52.150;4.682;2024-03-08T02:23:16;101932.84;;;9.48
64947;BMP280;51469;52.150;4.682;2024-03-08T02:25:41;101919.63;;;9.51
64947;BMP280;51469;52.150;4.682;2024-03-08T02:28:10;101918.69;;;9.46
64947;BMP280;51469;52.150;4.682;2024-03-08T02:30:36;101921.41;;;9.34
64947;BMP280;51469;52.150;4.682;2024-03-08T02:33:01;101911.84;;;9.40
64947;BMP280;51469;52.150;4.682;2024-03-08T02:35:27;101913.66;;;9.36
64947;BMP280;51469;52.150;4.682;2024-03-08T02:37:52;101912.50;;;9.37
64947;BMP280;51469;52.150;4.682;2024-03-08T02:40:18;101919.00;;;9.33
64947;BMP280;51469;52.150;4.682;2024-03-08T02:42:43;101911.13;;;9.31
64947;BMP280;51469;52.150;4.682;2024-03-08T02:45:09;101898.31;;;9.23
64947;BMP280;51469;52.150;4.682;2024-03-08T02:47:37;101899.91;;;9.24
64947;BMP280;51469;52.150;4.682;2024-03-08T02:50:02;101889.63;;;9.21
64947;BMP280;51469;52.150;4.682;2024-03-08T02:52:28;101886.00;;;9.17
64947;BMP280;51469;52.150;4.682;2024-03-08T02:54:54;101892.84;;;9.23
64947;BMP280;51469;52.150;4.682;2024-03-08T02:57:19;101886.44;;;9.07
64947;BMP280;51469;52.150;4.682;2024-03-08T02:59:44;101882.81;;;9.15
64947;BMP280;51469;52.150;4.682;2024-03-08T03:02:11;101882.88;;;9.07
64947;BMP280;51469;52.150;4.682;2024-03-08T03:04:39;101880.09;;;8.95
64947;BMP280;51469;52.150;4.682;2024-03-08T03:07:05;101871.13;;;9.06
64947;BMP280;51469;52.150;4.682;2024-03-08T03:09:30;101870.44;;;9.09
64947;BMP280;51469;52.150;4.682;2024-03-08T03:11:58;101878.47;;;9.14
64947;BMP280;51469;52.150;4.682;2024-03-08T03:14:23;101862.25;;;9.21
64947;BMP280;51469;52.150;4.682;2024-03-08T03:16:49;101871.19;;;9.18
64947;BMP280;51469;52.150;4.682;2024-03-08T03:19:15;101870.00;;;9.07
64947;BMP280;51469;52.150;4.682;2024-03-08T03:21:40;101867.28;;;9.07
64947;BMP280;51469;52.150;4.682;2024-03-08T03:24:08;101855.69;;;8.90
64947;BMP280;51469;52.150;4.682;2024-03-08T03:26:38;101863.97;;;8.81
64947;BMP280;51469;52.150;4.682;2024-03-08T03:29:05;101861.69;;;8.83
64947;BMP280;51469;52.150;4.682;2024-03-08T03:31:31;101859.44;;;8.85
64947;BMP280;51469;52.150;4.682;2024-03-08T03:33:57;101858.09;;;8.91
64947;BMP280;51469;52.150;4.682;2024-03-08T03:36:27;101855.56;;;8.86
64947;BMP280;51469;52.150;4.682;2024-03-08T03:38:53;101847.81;;;8.88
64947;BMP280;51469;52.150;4.682;2024-03-08T03:41:30;101852.50;;;8.88
64947;BMP280;51469;52.150;4.682;2024-03-08T03:43:55;101841.31;;;8.81
64947;BMP280;51469;52.150;4.682;2024-03-08T03:46:21;101838.09;;;8.79
64947;BMP280;51469;52.150;4.682;2024-03-08T03:48:46;101841.16;;;8.77
64947;BMP280;51469;52.150;4.682;2024-03-08T03:51:11;101837.41;;;8.82
64947;BMP280;51469;52.150;4.682;2024-03-08T03:53:37;101842.31;;;8.76
64947;BMP280;51469;52.150;4.682;2024-03-08T03:56:03;101835.03;;;8.80
64947;BMP280;51469;52.150;4.682;2024-03-08T03:58:32;101832.00;;;8.73
64947;BMP280;51469;52.150;4.682;2024-03-08T04:00:57;101834.31;;;8.83
64947;BMP280;51469;52.150;4.682;2024-03-08T04:03:23;101832.72;;;8.82
64947;BMP280;51469;52.150;4.682;2024-03-08T04:05:48;101835.03;;;8.80
64947;BMP280;51469;52.150;4.682;2024-03-08T04:08:14;101826.34;;;8.78
64947;BMP280;51469;52.150;4.682;2024-03-08T04:10:39;101830.88;;;8.74
64947;BMP280;51469;52.150;4.682;2024-03-08T04:13:07;101823.16;;;8.76
64947;BMP280;51469;52.150;4.682;2024-03-08T04:15:32;101828.16;;;8.74
64947;BMP280;51469;52.150;4.682;2024-03-08T04:17:57;101828.63;;;8.76
64947;BMP280;51469;52.150;4.682;2024-03-08T04:20:25;101812.38;;;8.59
64947;BMP280;51469;52.150;4.682;2024-03-08T04:22:51;101811.66;;;8.50
64947;BMP280;51469;52.150;4.682;2024-03-08T04:25:16;101816.25;;;8.58
64947;BMP280;51469;52.150;4.682;2024-03-08T04:27:41;101808.56;;;8.52
64947;BMP280;51469;52.150;4.682;2024-03-08T04:30:08;101805.06;;;8.51
64947;BMP280;51469;52.150;4.682;2024-03-08T04:32:34;101808.38;;;8.36
64947;BMP280;51469;52.150;4.682;2024-03-08T04:34:59;101810.06;;;8.49
64947;BMP280;51469;52.150;4.682;2024-03-08T04:37:27;101812.09;;;8.52
64947;BMP280;51469;52.150;4.682;2024-03-08T04:39:54;101811.97;;;8.49
64947;BMP280;51469;52.150;4.682;2024-03-08T04:42:20;101809.56;;;8.47
64947;BMP280;51469;52.150;4.682;2024-03-08T04:44:45;101804.78;;;8.44
64947;BMP280;51469;52.150;4.682;2024-03-08T04:47:11;101798.38;;;8.40
64947;BMP280;51469;52.150;4.682;2024-03-08T04:49:36;101801.94;;;8.41
64947;BMP280;51469;52.150;4.682;2024-03-08T04:52:02;101802.38;;;8.43
64947;BMP280;51469;52.150;4.682;2024-03-08T04:54:28;101787.88;;;8.42
64947;BMP280;51469;52.150;4.682;2024-03-08T04:56:54;101791.31;;;8.39
64947;BMP280;51469;52.150;4.682;2024-03-08T04:59:19;101782.41;;;8.30
64947;BMP280;51469;52.150;4.682;2024-03-08T05:01:44;101789.50;;;8.43
64947;BMP280;51469;52.150;4.682;2024-03-08T05:04:10;101795.19;;;8.38
64947;BMP280;51469;52.150;4.682;2024-03-08T05:06:35;101789.19;;;8.24
64947;BMP280;51469;52.150;4.682;2024-03-08T05:09:02;101776.81;;;8.27
64947;BMP280;51469;52.150;4.682;2024-03-08T05:11:42;101779.69;;;8.30
64947;BMP280;51469;52.150;4.682;2024-03-08T05:14:12;101773.06;;;8.31
64947;BMP280;51469;52.150;4.682;2024-03-08T05:16:48;101775.81;;;8.31
64947;BMP280;51469;52.150;4.682;2024-03-08T05:19:17;101780.09;;;8.32
64947;BMP280;51469;52.150;4.682;2024-03-08T05:21:44;101774.84;;;8.27
64947;BMP280;51469;52.150;4.682;2024-03-08T05:24:09;101770.53;;;8.26
64947;BMP280;51469;52.150;4.682;2024-03-08T05:26:35;101776.25;;;8.13
64947;BMP280;51469;52.150;4.682;2024-03-08T05:29:00;101767.72;;;8.14
64947;BMP280;51469;52.150;4.682;2024-03-08T05:31:26;101767.72;;;8.14
64947;BMP280;51469;52.150;4.682;2024-03-08T05:33:53;101769.72;;;8.05
64947;BMP280;51469;52.150;4.682;2024-03-08T05:36:20;101770.66;;;8.09
64947;BMP280;51469;52.150;4.682;2024-03-08T05:38:46;101764.50;;;8.12
64947;BMP280;51469;52.150;4.682;2024-03-08T05:41:12;101768.19;;;8.16
64947;BMP280;51469;52.150;4.682;2024-03-08T05:43:38;101762.91;;;8.11
64947;BMP280;51469;52.150;4.682;2024-03-08T05:46:04;101765.53;;;8.08
64947;BMP280;51469;52.150;4.682;2024-03-08T05:48:32;101759.72;;;8.09
64947;BMP280;51469;52.150;4.682;2024-03-08T05:50:59;101761.69;;;8.09
64947;BMP280;51469;52.150;4.682;2024-03-08T05:53:25;101760.66;;;8.13
64947;BMP280;51469;52.150;4.682;2024-03-08T05:55:51;101765.19;;;8.09
64947;BMP280;51469;52.150;4.682;2024-03-08T05:58:17;101762.13;;;8.11
64947;BMP280;51469;52.150;4.682;2024-03-08T06:00:42;101755.88;;;8.10
64947;BMP280;51469;52.150;4.682;2024-03-08T06:03:08;101746.50;;;8.11
64947;BMP280;51469;52.150;4.682;2024-03-08T06:05:33;101756.78;;;8.14
64947;BMP280;51469;52.150;4.682;2024-03-08T06:07:58;101757.44;;;8.11
64947;BMP280;51469;52.150;4.682;2024-03-08T06:10:24;101747.31;;;8.12
64947;BMP280;51469;52.150;4.682;2024-03-08T06:12:49;101744.13;;;8.10
64947;BMP280;51469;52.150;4.682;2024-03-08T06:15:16;101748.78;;;8.09
64947;BMP280;51469;52.150;4.682;2024-03-08T06:17:42;101747.00;;;8.13
64947;BMP280;51469;52.150;4.682;2024-03-08T06:20:08;101735.72;;;8.15
64947;BMP280;51469;52.150;4.682;2024-03-08T06:22:38;101740.16;;;8.07
64947;BMP280;51469;52.150;4.682;2024-03-08T06:25:09;101741.75;;;8.08
64947;BMP280;51469;52.150;4.682;2024-03-08T06:27:42;101737.16;;;8.12
64947;BMP280;51469;52.150;4.682;2024-03-08T06:30:08;101737.31;;;8.16
64947;BMP280;51469;52.150;4.682;2024-03-08T06:32:35;101742.38;;;8.26
64947;BMP280;51469;52.150;4.682;2024-03-08T06:35:02;101744.66;;;8.24
64947;BMP280;51469;52.150;4.682;2024-03-08T06:37:28;101742.50;;;8.29
64947;BMP280;51469;52.150;4.682;2024-03-08T06:39:53;101737.06;;;8.29
64947;BMP280;51469;52.150;4.682;2024-03-08T06:42:20;101738.75;;;8.34
64947;BMP280;51469;52.150;4.682;2024-03-08T06:44:45;101732.75;;;8.40
64947;BMP280;51469;52.150;4.682;2024-03-08T06:47:17;101731.63;;;8.41
64947;BMP280;51469;52.150;4.682;2024-03-08T06:49:43;101720.91;;;8.36
64947;BMP280;51469;52.150;4.682;2024-03-08T06:52:11;101722.03;;;8.35
64947;BMP280;51469;52.150;4.682;2024-03-08T06:54:36;101725.38;;;8.53
64947;BMP280;51469;52.150;4.682;2024-03-08T06:57:05;101716.97;;;8.58
64947;BMP280;51469;52.150;4.682;2024-03-08T06:59:31;101724.28;;;8.66
64947;BMP280;51469;52.150;4.682;2024-03-08T07:01:56;101720.28;;;8.63
64947;BMP280;51469;52.150;4.682;2024-03-08T07:04:22;101722.16;;;8.71
64947;BMP280;51469;52.150;4.682;2024-03-08T07:06:51;101718.94;;;8.69
64947;BMP280;51469;52.150;4.682;2024-03-08T07:09:17;101716.69;;;8.71
64947;BMP280;51469;52.150;4.682;2024-03-08T07:11:43;101720.72;;;8.53
64947;BMP280;51469;52.150;4.682;2024-03-08T07:14:08;101711.34;;;8.30
64947;BMP280;51469;52.150;4.682;2024-03-08T07:16:34;101705.91;;;8.54
64947;BMP280;51469;52.150;4.682;2024-03-08T07:19:01;101703.88;;;8.63
64947;BMP280;51469;52.150;4.682;2024-03-08T07:21:26;101701.41;;;8.82
64947;BMP280;51469;52.150;4.682;2024-03-08T07:23:52;101694.09;;;8.74
64947;BMP280;51469;52.150;4.682;2024-03-08T07:26:40;101693.88;;;8.91
64947;BMP280;51469;52.150;4.682;2024-03-08T07:29:06;101698.59;;;8.91
64947;BMP280;51469;52.150;4.682;2024-03-08T07:31:33;101704.28;;;8.98
64947;BMP280;51469;52.150;4.682;2024-03-08T07:34:07;101697.19;;;8.97
64947;BMP280;51469;52.150;4.682;2024-03-08T07:36:33;101701.16;;;9.11
64947;BMP280;51469;52.150;4.682;2024-03-08T07:39:00;101689.78;;;9.09
64947;BMP280;51469;52.150;4.682;2024-03-08T07:41:25;101684.06;;;9.26
64947;BMP280;51469;52.150;4.682;2024-03-08T07:43:51;101698.66;;;9.43
64947;BMP280;51469;52.150;4.682;2024-03-08T07:46:17;101686.22;;;9.45
64947;BMP280;51469;52.150;4.682;2024-03-08T07:48:43;101682.41;;;9.49
64947;BMP280;51469;52.150;4.682;2024-03-08T07:51:10;101681.47;;;9.70
64947;BMP280;51469;52.150;4.682;2024-03-08T07:53:37;101682.41;;;9.49
64947;BMP280;51469;52.150;4.682;2024-03-08T07:56:03;101667.31;;;9.68
64947;BMP280;51469;52.150;4.682;2024-03-08T07:58:30;101673.28;;;9.57
64947;BMP280;51469;52.150;4.682;2024-03-08T08:00:55;101674.06;;;9.70
64947;BMP280;51469;52.150;4.682;2024-03-08T08:03:21;101675.50;;;9.80
64947;BMP280;51469;52.150;4.682;2024-03-08T08:05:46;101668.47;;;9.94
64947;BMP280;51469;52.150;4.682;2024-03-08T08:08:12;101671.31;;;9.98
64947;BMP280;51469;52.150;4.682;2024-03-08T08:10:37;101670.38;;;10.06
64947;BMP280;51469;52.150;4.682;2024-03-08T08:13:03;101664.81;;;10.18
64947;BMP280;51469;52.150;4.682;2024-03-08T08:15:31;101663.22;;;10.17
64947;BMP280;51469;52.150;4.682;2024-03-08T08:17:56;101649.78;;;10.12
64947;BMP280;51469;52.150;4.682;2024-03-08T08:20:22;101653.16;;;10.21
64947;BMP280;51469;52.150;4.682;2024-03-08T08:22:48;101648.66;;;10.44
64947;BMP280;51469;52.150;4.682;2024-03-08T08:25:14;101646.41;;;10.65
64947;BMP280;51469;52.150;4.682;2024-03-08T08:27:45;101645.41;;;10.38
64947;BMP280;51469;52.150;4.682;2024-03-08T08:30:11;101650.41;;;10.52
64947;BMP280;51469;52.150;4.682;2024-03-08T08:32:40;101643.00;;;10.68
64947;BMP280;51469;52.150;4.682;2024-03-08T08:35:07;101637.94;;;10.70
64947;BMP280;51469;52.150;4.682;2024-03-08T08:37:34;101640.91;;;10.96
64947;BMP280;51469;52.150;4.682;2024-03-08T08:40:02;101633.53;;;11.15
64947;BMP280;51469;52.150;4.682;2024-03-08T08:42:33;101625.75;;;11.17
64947;BMP280;51469;52.150;4.682;2024-03-08T08:44:59;101631.03;;;11.45
64947;BMP280;51469;52.150;4.682;2024-03-08T08:47:24;101625.38;;;11.76
64947;BMP280;51469;52.150;4.682;2024-03-08T08:49:50;101620.28;;;12.19
64947;BMP280;51469;52.150;4.682;2024-03-08T08:52:16;101627.47;;;12.50
64947;BMP280;51469;52.150;4.682;2024-03-08T08:54:42;101611.78;;;12.80
64947;BMP280;51469;52.150;4.682;2024-03-08T08:57:08;101614.63;;;13.42
64947;BMP280;51469;52.150;4.682;2024-03-08T08:59:34;101620.50;;;13.81
64947;BMP280;51469;52.150;4.682;2024-03-08T09:02:01;101608.38;;;13.49
64947;BMP280;51469;52.150;4.682;2024-03-08T09:04:29;101598.34;;;13.67
64947;BMP280;51469;52.150;4.682;2024-03-08T09:06:54;101606.03;;;13.51
64947;BMP280;51469;52.150;4.682;2024-03-08T09:09:19;101596.09;;;13.10
64947;BMP280;51469;52.150;4.682;2024-03-08T09:11:47;101600.63;;;12.99
64947;BMP280;51469;52.150;4.682;2024-03-08T09:14:12;101593.78;;;12.60
64947;BMP280;51469;52.150;4.682;2024-03-08T09:16:38;101588.41;;;12.67
64947;BMP280;51469;52.150;4.682;2024-03-08T09:19:03;101594.97;;;12.85
64947;BMP280;51469;52.150;4.682;2024-03-08T09:21:29;101583.22;;;12.62
64947;BMP280;51469;52.150;4.682;2024-03-08T09:23:55;101596.97;;;12.62
64947;BMP280;51469;52.150;4.682;2024-03-08T09:26:20;101584.09;;;12.69
64947;BMP280;51469;52.150;4.682;2024-03-08T09:28:47;101583.09;;;12.81
64947;BMP280;51469;52.150;4.682;2024-03-08T09:31:12;101570.50;;;12.80
64947;BMP280;51469;52.150;4.682;2024-03-08T09:33:38;101575.59;;;12.78
64947;BMP280;51469;52.150;4.682;2024-03-08T09:36:05;101558.84;;;12.90
64947;BMP280;51469;52.150;4.682;2024-03-08T09:38:32;101563.38;;;12.75
64947;BMP280;51469;52.150;4.682;2024-03-08T09:40:59;101559.38;;;12.73
64947;BMP280;51469;52.150;4.682;2024-03-08T09:43:27;101561.53;;;12.57
64947;BMP280;51469;52.150;4.682;2024-03-08T09:45:53;101547.03;;;12.89
64947;BMP280;51469;52.150;4.682;2024-03-08T09:48:20;101544.56;;;13.14
64947;BMP280;51469;52.150;4.682;2024-03-08T09:50:47;101538.72;;;13.19
64947;BMP280;51469;52.150;4.682;2024-03-08T09:53:13;101542.66;;;13.18
64947;BMP280;51469;52.150;4.682;2024-03-08T09:55:38;101528.31;;;13.05
64947;BMP280;51469;52.150;4.682;2024-03-08T09:58:11;101523.94;;;13.34
64947;BMP280;51469;52.150;4.682;2024-03-08T10:00:55;101508.16;;;13.31
64947;BMP280;51469;52.150;4.682;2024-03-08T10:03:26;101505.53;;;13.45
64947;BMP280;51469;52.150;4.682;2024-03-08T10:05:52;101496.63;;;13.62
64947;BMP280;51469;52.150;4.682;2024-03-08T10:08:17;101495.81;;;13.58
64947;BMP280;51469;52.150;4.682;2024-03-08T10:10:43;101489.94;;;13.59
64947;BMP280;51469;52.150;4.682;2024-03-08T10:13:09;101493.47;;;13.60
64947;BMP280;51469;52.150;4.682;2024-03-08T10:15:36;101478.31;;;13.80
64947;BMP280;51469;52.150;4.682;2024-03-08T10:18:03;101478.78;;;13.96
64947;BMP280;51469;52.150;4.682;2024-03-08T10:20:30;101468.88;;;13.88
64947;BMP280;51469;52.150;4.682;2024-03-08T10:23:00;101481.91;;;13.91
64947;BMP280;51469;52.150;4.682;2024-03-08T10:25:26;101456.88;;;14.17
64947;BMP280;51469;52.150;4.682;2024-03-08T10:27:51;101461.69;;;14.27
64947;BMP280;51469;52.150;4.682;2024-03-08T10:30:17;101445.53;;;14.32
64947;BMP280;51469;52.150;4.682;2024-03-08T10:32:47;101445.84;;;14.24
64947;BMP280;51469;52.150;4.682;2024-03-08T10:35:12;101447.88;;;14.27
64947;BMP280;51469;52.150;4.682;2024-03-08T10:37:45;101439.59;;;14.27
64947;BMP280;51469;52.150;4.682;2024-03-08T10:40:16;101441.69;;;14.65
64947;BMP280;51469;52.150;4.682;2024-03-08T10:42:57;101438.69;;;14.09
64947;BMP280;51469;52.150;4.682;2024-03-08T10:50:48;101414.06;;;14.51
64947;BMP280;51469;52.150;4.682;2024-03-08T10:53:18;101409.78;;;14.71
64947;BMP280;51469;52.150;4.682;2024-03-08T10:55:46;101402.69;;;14.77
64947;BMP280;51469;52.150;4.682;2024-03-08T10:58:12;101386.06;;;14.70
64947;BMP280;51469;52.150;4.682;2024-03-08T11:00:37;101384.59;;;14.97
64947;BMP280;51469;52.150;4.682;2024-03-08T11:03:04;101384.50;;;14.65
64947;BMP280;51469;52.150;4.682;2024-03-08T11:05:40;101371.13;;;14.71
64947;BMP280;51469;52.150;4.682;2024-03-08T11:08:19;101373.50;;;15.14
64947;BMP280;51469;52.150;4.682;2024-03-08T11:13:35;101357.72;;;15.50
64947;BMP280;51469;52.150;4.682;2024-03-08T11:16:02;101379.44;;;15.41
64947;BMP280;51469;52.150;4.682;2024-03-08T11:18:32;101364.06;;;15.23
64947;BMP280;51469;52.150;4.682;2024-03-08T11:21:02;101351.38;;;15.43
64947;BMP280;51469;52.150;4.682;2024-03-08T11:23:32;101343.41;;;15.80
64947;BMP280;51469;52.150;4.682;2024-03-08T11:25:59;101344.97;;;15.81
64947;BMP280;51469;52.150;4.682;2024-03-08T11:28:24;101334.31;;;15.90
64947;BMP280;51469;52.150;4.682;2024-03-08T11:33:27;101318.09;;;15.88
64947;BMP280;51469;52.150;4.682;2024-03-08T11:35:53;101315.59;;;16.11
64947;BMP280;51469;52.150;4.682;2024-03-08T11:38:22;101317.13;;;16.26
64947;BMP280;51469;52.150;4.682;2024-03-08T11:40:48;101305.94;;;16.40
64947;BMP280;51469;52.150;4.682;2024-03-08T11:43:17;101306.69;;;16.48
64947;BMP280;51469;52.150;4.682;2024-03-08T11:45:43;101307.22;;;16.25
64947;BMP280;51469;52.150;4.682;2024-03-08T11:48:08;101298.69;;;16.60
64947;BMP280;51469;52.150;4.682;2024-03-08T11:50:34;101289.88;;;16.76
64947;BMP280;51469;52.150;4.682;2024-03-08T11:53:03;101289.38;;;16.84
64947;BMP280;51469;52.150;4.682;2024-03-08T11:55:29;101283.97;;;17.11
64947;BMP280;51469;52.150;4.682;2024-03-08T11:58:05;101269.63;;;17.19
64947;BMP280;51469;52.150;4.682;2024-03-08T12:00:33;101282.59;;;17.29
64947;BMP280;51469;52.150;4.682;2024-03-08T12:03:08;101282.09;;;17.41
64947;BMP280;51469;52.150;4.682;2024-03-08T12:05:37;101281.63;;;17.46
64947;BMP280;51469;52.150;4.682;2024-03-08T12:08:04;101261.81;;;17.11
64947;BMP280;51469;52.150;4.682;2024-03-08T12:10:32;101265.44;;;17.04
64947;BMP280;51469;52.150;4.682;2024-03-08T12:12:58;101267.63;;;17.23
64947;BMP280;51469;52.150;4.682;2024-03-08T12:15:31;101265.72;;;17.17
64947;BMP280;51469;52.150;4.682;2024-03-08T12:17:59;101257.53;;;17.40
64947;BMP280;51469;52.150;4.682;2024-03-08T12:20:27;101253.41;;;17.55
64947;BMP280;51469;52.150;4.682;2024-03-08T12:22:56;101249.50;;;17.78
64947;BMP280;51469;52.150;4.682;2024-03-08T12:25:22;101243.97;;;17.75
64947;BMP280;51469;52.150;4.682;2024-03-08T12:27:47;101253.63;;;17.97
64947;BMP280;51469;52.150;4.682;2024-03-08T12:30:26;101242.34;;;17.81
64947;BMP280;51469;52.150;4.682;2024-03-08T12:32:57;101241.38;;;17.91
64947;BMP280;51469;52.150;4.682;2024-03-08T12:35:27;101232.88;;;17.75
64947;BMP280;51469;52.150;4.682;2024-03-08T12:37:55;101226.34;;;18.15
64947;BMP280;51469;52.150;4.682;2024-03-08T12:40:32;101214.41;;;18.18
64947;BMP280;51469;52.150;4.682;2024-03-08T12:42:58;101211.91;;;18.00
64947;BMP280;51469;52.150;4.682;2024-03-08T12:45:24;101224.66;;;17.68
64947;BMP280;51469;52.150;4.682;2024-03-08T12:47:53;101212.69;;;17.11
64947;BMP280;51469;52.150;4.682;2024-03-08T12:50:20;101226.63;;;17.38
64947;BMP280;51469;52.150;4.682;2024-03-08T12:52:46;101203.66;;;17.37
64947;BMP280;51469;52.150;4.682;2024-03-08T12:55:11;101214.84;;;17.30
64947;BMP280;51469;52.150;4.682;2024-03-08T12:57:37;101197.13;;;17.54
64947;BMP280;51469;52.150;4.682;2024-03-08T13:00:04;101198.03;;;17.44
64947;BMP280;51469;52.150;4.682;2024-03-08T13:02:30;101214.22;;;17.79
64947;BMP280;51469;52.150;4.682;2024-03-08T13:04:58;101215.91;;;17.96
64947;BMP280;51469;52.150;4.682;2024-03-08T13:07:25;101201.41;;;17.85
64947;BMP280;51469;52.150;4.682;2024-03-08T13:09:53;101210.78;;;17.68
64947;BMP280;51469;52.150;4.682;2024-03-08T13:12:20;101194.88;;;17.42
64947;BMP280;51469;52.150;4.682;2024-03-08T13:14:46;101181.84;;;17.06
64947;BMP280;51469;52.150;4.682;2024-03-08T13:17:12;101178.69;;;17.67
64947;BMP280;51469;52.150;4.682;2024-03-08T13:19:38;101175.91;;;17.37
64947;BMP280;51469;52.150;4.682;2024-03-08T13:22:04;101178.91;;;17.53
64947;BMP280;51469;52.150;4.682;2024-03-08T13:24:30;101165.78;;;17.80
64947;BMP280;51469;52.150;4.682;2024-03-08T13:26:56;101159.31;;;18.13
64947;BMP280;51469;52.150;4.682;2024-03-08T13:29:22;101163.75;;;17.84
64947;BMP280;51469;52.150;4.682;2024-03-08T13:31:48;101154.38;;;18.01
64947;BMP280;51469;52.150;4.682;2024-03-08T13:34:17;101160.66;;;18.05
64947;BMP280;51469;52.150;4.682;2024-03-08T13:36:43;101156.13;;;17.91
64947;BMP280;51469;52.150;4.682;2024-03-08T13:39:09;101159.72;;;17.62
64947;BMP280;51469;52.150;4.682;2024-03-08T13:41:41;101154.09;;;17.69
64947;BMP280;51469;52.150;4.682;2024-03-08T13:44:07;101146.44;;;17.50
64947;BMP280;51469;52.150;4.682;2024-03-08T13:46:32;101136.47;;;17.26
64947;BMP280;51469;52.150;4.682;2024-03-08T13:49:03;101154.97;;;17.36
64947;BMP280;51469;52.150;4.682;2024-03-08T13:51:31;101146.59;;;17.40
64947;BMP280;51469;52.150;4.682;2024-03-08T13:53:57;101145.88;;;17.32
64947;BMP280;51469;52.150;4.682;2024-03-08T13:56:23;101132.47;;;17.27
64947;BMP280;51469;52.150;4.682;2024-03-08T13:58:48;101126.66;;;17.48
64947;BMP280;51469;52.150;4.682;2024-03-08T14:01:13;101121.75;;;17.59
64947;BMP280;51469;52.150;4.682;2024-03-08T14:03:39;101119.28;;;17.65
64947;BMP280;51469;52.150;4.682;2024-03-08T14:06:08;101125.91;;;17.44
64947;BMP280;51469;52.150;4.682;2024-03-08T14:08:35;101116.75;;;17.47
64947;BMP280;51469;52.150;4.682;2024-03-08T14:11:02;101109.00;;;17.35